EST,Max TemperatureF,Mean TemperatureF,Min TemperatureF,Max Dew PointF,MeanDew PointF,Min DewpointF,Max Humidity, Mean Humidity, Min Humidity, Max Sea Level PressureIn, Mean Sea Level PressureIn, Min Sea Level PressureIn, Max VisibilityMiles, Mean VisibilityMiles, Min VisibilityMiles, Max Wind SpeedMPH, Mean Wind SpeedMPH, Max Gust SpeedMPH,PrecipitationIn, CloudCover, Events, WindDirDegrees
2012-1-1,37,32,24,30,24,12,81,72,55,29.81,29.63,29.53,10,7,1,21,10,33,0.02,8,,293
2012-1-2,23,17,8,10,4,-2,63,56,45,30.30,30.07,29.82,10,10,10,23,17,34,0.00,4,,307
2012-1-3,24,15,6,9,2,-4,68,59,46,30.31,30.17,29.92,10,10,10,17,11,26,0.00,2,,247
2012-1-4,32,23,14,19,12,3,80,66,58,29.93,29.87,29.81,10,10,10,10,6,,0.00,2,,265
2012-1-5,33,25,17,27,19,10,80,73,64,29.92,29.76,29.46,10,10,5,14,5,20,0.00,1,,223
2012-1-6,48,37,26,28,24,19,80,67,40,29.65,29.54,29.45,10,10,10,12,5,17,0.00,1,,250
2012-1-7,33,30,26,25,18,12,75,61,44,30.20,29.93,29.64,10,10,10,16,6,22,0.00,7,,316
2012-1-8,35,28,21,18,14,12,69,58,44,30.21,30.19,30.16,10,10,10,14,5,23,0.00,6,,250
2012-1-9,44,35,26,25,22,18,74,61,43,30.11,29.83,29.66,10,10,10,18,9,25,0.00,3,,248
2012-1-10,39,32,24,28,24,18,86,69,52,29.96,29.85,29.70,10,10,1,16,7,22,0.00,1,,235
2012-1-11,37,30,23,30,24,18,86,78,70,29.69,29.61,29.56,10,6,1,7,1,,0.00,1,,20
2012-1-12,35,29,23,28,17,12,75,67,59,29.58,29.52,29.47,10,7,1,20,12,32,0.00,8,,348
2012-1-13,23,18,14,12,7,0,68,60,49,29.98,29.76,29.48,10,8,1,18,13,32,0.00,8,,334
2012-1-14,19,14,10,9,4,-2,73,61,49,30.17,30.09,29.99,10,10,10,9,4,,0.00,8,,52
2012-1-15,33,20,8,25,11,1,80,68,54,30.26,30.18,30.01,10,9,5,22,5,31,0.00,8,,204
2012-1-16,35,32,30,27,22,19,80,64,56,29.96,29.80,29.72,10,10,9,17,10,26,0.00,6,,290
2012-1-17,30,21,12,19,9,0,69,60,49,30.09,29.89,29.79,10,9,1,20,12,30,0.00,7,,341
2012-1-18,24,17,10,9,2,0,62,54,46,30.16,30.01,29.71,10,10,10,28,11,34,0.00,4,,226
2012-1-19,21,10,-2,12,-7,-17,74,51,34,30.07,29.81,29.56,10,9,1,24,15,32,0.00,2,,289
2012-1-20,10,2,-7,-15,-19,-24,60,42,22,30.19,30.15,30.09,10,10,10,13,8,,0.00,1,,272
2012-1-21,19,8,-2,3,-9,-26,60,45,24,30.25,30.20,30.16,10,10,10,10,6,,0.00,0,,276
2012-1-22,32,26,21,28,21,12,87,76,63,30.11,29.88,29.64,10,7,1,18,11,25,0.00,8,,157
2012-1-23,35,34,32,28,28,27,87,84,75,29.62,29.37,29.24,10,5,1,14,7,,0.20,8,,354
2012-1-24,28,24,21,19,14,10,74,64,55,30.29,29.99,29.62,10,9,3,18,11,26,0.00,7,,298
2012-1-25,30,24,17,21,16,12,86,71,59,30.33,30.24,30.12,10,9,7,10,3,,0.00,5,,215
2012-1-26,33,30,28,28,26,23,81,78,69,30.03,29.81,29.64,7,4,2,20,8,26,0.00,7,,200
2012-1-27,39,32,26,25,19,12,80,59,33,29.76,29.70,29.58,10,9,4,14,7,23,0.00,4,,270
2012-1-28,30,27,24,27,17,9,86,66,50,29.81,29.70,29.65,10,8,2,21,9,30,0.02,6,,284
2012-1-29,21,14,6,9,5,0,72,57,46,30.13,29.96,29.83,10,10,10,15,8,22,0.00,5,,286
2012-1-30,32,15,0,25,9,-8,80,74,66,30.14,29.96,29.79,10,8,1,20,6,24,0.00,6,,146
2012-1-31,37,30,23,32,26,18,87,79,70,29.78,29.66,29.56,10,4,0,9,2,,0.01,4,,154